Time;durP1;ratioP1;P1;durP2;ratioP2;P2;SDS_P1;SDS_P2;PMS_P1;PMS_P2;Temp;Humidity;BMP_temperature;BMP_pressure;BME280_temperature;BME280_humidity;BME280_pressure;Samples;Min_cycle;Max_cycle;Signal;HPM_P1;HPM_P2
2021/11/20 00:01:30;;;;;;;11.85;3.35;;;12.90;99.20;;;;;;4919161;29;20036;-74
2021/11/20 00:03:56;;;;;;;8.70;3.28;;;13.00;99.20;;;;;;4935865;29;20126;-74
2021/11/20 00:06:26;;;;;;;11.52;3.75;;;12.90;99.10;;;;;;4935579;29;20119;-74
2021/11/20 00:08:52;;;;;;;13.90;4.13;;;12.90;99.20;;;;;;4935848;29;20090;-74
2021/11/20 00:11:21;;;;;;;9.27;4.07;;;12.90;99.40;;;;;;4919296;29;20027;-75
2021/11/20 00:13:48;;;;;;;12.32;3.60;;;12.90;99.20;;;;;;4935782;29;20036;-75
2021/11/20 00:16:15;;;;;;;8.27;3.17;;;12.90;99.30;;;;;;4935745;29;20036;-75
2021/11/20 00:18:42;;;;;;;13.20;3.72;;;12.90;99.50;;;;;;4918851;29;20036;-74
2021/11/20 00:21:12;;;;;;;14.07;4.15;;;12.90;99.40;;;;;;4935508;29;20032;-75
2021/11/20 00:23:42;;;;;;;13.10;3.90;;;12.80;99.30;;;;;;4918525;29;20035;-74
2021/11/20 00:26:10;;;;;;;8.95;4.35;;;12.80;99.30;;;;;;4935611;29;20112;-75
2021/11/20 00:29:39;;;;;;;9.25;3.65;;;12.90;99.60;;;;;;4935860;29;20034;-75
2021/11/20 00:31:40;;;;;;;13.20;3.75;;;13.00;99.30;;;;;;4928424;29;20028;-74
2021/11/20 00:34:10;;;;;;;10.45;3.45;;;13.00;99.30;;;;;;4918506;29;20103;-74
2021/11/20 00:36:35;;;;;;;10.93;4.43;;;13.00;99.20;;;;;;4935137;29;20036;-75
2021/11/20 00:39:03;;;;;;;9.23;3.97;;;12.90;99.30;;;;;;4935203;29;20367;-74
2021/11/20 00:41:29;;;;;;;;;;;13.00;99.30;;;;;;4936194;29;20023;-76
2021/11/20 00:43:56;;;;;;;9.65;3.80;;;13.00;99.20;;;;;;4935380;29;19978;-74
2021/11/20 00:46:24;;;;;;;11.40;4.63;;;13.00;99.20;;;;;;4934802;29;20390;-75
2021/11/20 00:48:51;;;;;;;13.80;4.20;;;12.90;99.40;;;;;;4935271;29;20032;-75
2021/11/20 00:51:19;;;;;;;15.65;5.22;;;13.00;99.40;;;;;;4935354;29;20099;-75
2021/11/20 00:53:45;;;;;;;10.77;3.67;;;12.90;99.30;;;;;;4935030;29;20381;-74
2021/11/20 00:56:13;;;;;;;9.55;3.72;;;12.90;99.70;;;;;;4918830;29;20042;-74
2021/11/20 00:58:41;;;;;;;10.90;4.60;;;12.80;99.60;;;;;;4934606;29;20028;-74
2021/11/20 01:01:09;;;;;;;11.63;4.25;;;12.80;99.70;;;;;;4934895;29;20070;-74
2021/11/20 01:03:35;;;;;;;;;;;12.80;99.70;;;;;;4935074;29;20371;-74
2021/11/20 01:06:01;;;;;;;10.02;4.90;;;12.80;99.70;;;;;;4935196;29;20384;-76
2021/11/20 01:08:31;;;;;;;12.10;4.75;;;12.80;99.70;;;;;;4934957;29;20028;-74
2021/11/20 01:11:07;;;;;;;13.38;4.88;;;12.80;99.70;;;;;;4934929;29;20573;-74
2021/11/20 01:13:34;;;;;;;13.07;4.28;;;12.80;99.70;;;;;;4917657;29;20382;-74
2021/11/20 01:16:04;;;;;;;11.07;4.63;;;12.80;99.80;;;;;;4934934;29;20036;-74
2021/11/20 01:18:31;;;;;;;13.25;4.20;;;12.90;99.80;;;;;;4934627;29;20066;-76
2021/11/20 01:20:57;;;;;;;13.97;4.13;;;12.90;99.70;;;;;;4934500;29;20028;-76
2021/11/20 01:23:26;;;;;;;10.38;4.32;;;12.90;99.60;;;;;;4934895;29;20024;-74
2021/11/20 01:25:53;;;;;;;15.80;5.05;;;12.90;99.70;;;;;;4934396;29;20176;-74
2021/11/20 01:28:20;;;;;;;20.75;5.53;;;12.80;99.80;;;;;;4934474;29;20142;-74
2021/11/20 01:30:46;;;;;;;9.63;4.60;;;12.90;99.70;;;;;;4934489;29;20166;-75
2021/11/20 01:33:12;;;;;;;11.20;5.53;;;12.90;99.80;;;;;;4934078;29;20462;-75
2021/11/20 01:35:38;;;;;;;15.23;6.47;;;12.80;99.90;;;;;;4934799;29;20032;-74
2021/11/20 01:38:05;;;;;;;14.85;5.25;;;12.80;99.90;;;;;;4934397;29;20477;-74
2021/11/20 01:40:35;;;;;;;14.52;5.25;;;12.90;99.90;;;;;;4934027;29;20578;-74
2021/11/20 01:43:01;;;;;;;19.30;5.75;;;12.90;99.90;;;;;;4934155;29;20046;-74
2021/11/20 01:45:32;;;;;;;15.55;5.25;;;12.80;99.90;;;;;;4934040;29;20035;-74
2021/11/20 01:48:20;;;;;;;11.68;5.30;;;12.80;99.90;;;;;;4934381;29;20032;-74
2021/11/20 01:50:48;;;;;;;12.85;4.97;;;12.70;99.90;;;;;;4922281;29;20373;-75
2021/11/20 01:53:17;;;;;;;;;;;12.80;99.90;;;;;;4934688;29;20111;-74
2021/11/20 01:56:04;;;;;;;11.23;5.40;;;12.80;99.90;;;;;;4933785;29;19934;-74
2021/11/20 01:58:41;;;;;;;11.45;5.70;;;12.90;99.90;;;;;;4933966;29;20047;-75
2021/11/20 02:01:12;;;;;;;12.52;5.68;;;12.80;99.90;;;;;;4934068;29;20028;-74
2021/11/20 02:03:55;;;;;;;11.15;5.68;;;12.80;99.90;;;;;;4933499;29;20546;-75
2021/11/20 02:06:26;;;;;;;19.52;5.35;;;12.80;99.90;;;;;;4933750;29;20343;-74
2021/11/20 02:09:01;;;;;;;12.20;5.88;;;12.80;99.90;;;;;;4916947;29;20174;-73
2021/11/20 02:12:07;;;;;;;10.90;5.20;;;12.70;99.90;;;;;;4934369;29;20468;-74
2021/11/20 02:14:33;;;;;;;15.10;6.03;;;12.80;99.90;;;;;;4916228;29;20130;-76
2021/11/20 02:17:24;;;;;;;18.00;5.60;;;12.80;99.90;;;;;;4917065;29;20247;-75
2021/11/20 02:19:59;;;;;;;15.25;4.97;;;12.80;99.90;;;;;;4932923;29;20119;-74
2021/11/20 02:22:35;;;;;;;15.73;5.18;;;12.90;99.90;;;;;;4933595;29;20031;-75
2021/11/20 02:25:01;;;;;;;13.70;5.30;;;12.90;99.90;;;;;;4933403;29;20071;-75
2021/11/20 02:27:27;;;;;;;14.52;5.68;;;12.90;99.90;;;;;;4933570;29;20038;-76
2021/11/20 02:30:10;;;;;;;14.02;5.55;;;12.90;99.90;;;;;;4933452;29;20023;-74
2021/11/20 02:32:35;;;;;;;11.13;5.50;;;12.80;99.90;;;;;;4916988;29;20127;-74
2021/11/20 02:35:01;;;;;;;12.77;5.05;;;12.90;99.90;;;;;;4934881;29;20410;-74
2021/11/20 02:37:27;;;;;;;15.85;5.32;;;12.80;99.90;;;;;;4952628;29;20085;-75
2021/11/20 02:39:52;;;;;;;12.60;5.50;;;12.90;99.90;;;;;;4952643;29;20039;-74
2021/11/20 02:42:22;;;;;;;12.60;4.95;;;12.90;99.90;;;;;;4952295;29;20042;-74
2021/11/20 02:44:48;;;;;;;10.55;5.05;;;12.90;99.90;;;;;;4952393;29;20023;-75
2021/11/20 02:47:27;;;;;;;16.50;5.75;;;12.90;99.90;;;;;;4953241;29;20353;-76
2021/11/20 02:49:53;;;;;;;22.88;5.43;;;12.80;99.90;;;;;;4952481;29;20032;-75
2021/11/20 02:52:20;;;;;;;12.20;5.15;;;12.80;99.90;;;;;;4935767;29;20089;-74
2021/11/20 02:54:47;;;;;;;12.77;4.75;;;12.90;99.90;;;;;;4952424;29;20050;-74
2021/11/20 02:57:24;;;;;;;10.63;5.38;;;12.90;99.90;;;;;;4935586;29;20035;-75
2021/11/20 02:59:50;;;;;;;19.33;5.70;;;13.00;99.90;;;;;;4952229;29;20385;-75
2021/11/20 03:02:16;;;;;;;11.60;5.18;;;13.00;99.80;;;;;;4953023;29;20114;-75
2021/11/20 03:04:43;;;;;;;12.45;5.45;;;12.90;99.80;;;;;;4952346;29;20130;-74
2021/11/20 03:07:09;;;;;;;9.75;4.93;;;13.00;99.70;;;;;;4935110;29;20123;-75
2021/11/20 03:09:37;;;;;;;9.60;4.90;;;13.00;99.70;;;;;;4952293;29;20436;-74
2021/11/20 03:12:05;;;;;;;11.63;4.95;;;12.90;99.80;;;;;;4935206;29;20461;-74
2021/11/20 03:14:31;;;;;;;12.50;5.78;;;12.90;99.90;;;;;;4935889;29;20425;-74
2021/11/20 03:17:00;;;;;;;8.10;4.57;;;13.00;99.80;;;;;;4952315;29;20462;-74
2021/11/20 03:19:30;;;;;;;10.10;4.93;;;13.00;99.60;;;;;;4952301;29;20035;-75
2021/11/20 03:22:00;;;;;;;13.00;6.10;;;13.00;99.70;;;;;;4952286;29;20043;-73
2021/11/20 03:24:27;;;;;;;14.50;5.30;;;13.00;99.60;;;;;;4935325;29;20054;-75
2021/11/20 03:26:53;;;;;;;12.27;5.30;;;13.00;99.60;;;;;;4952079;29;20024;-75
2021/11/20 03:29:20;;;;;;;10.60;4.47;;;13.10;99.60;;;;;;4952880;28;20019;-75
2021/11/20 03:31:46;;;;;;;14.45;5.32;;;13.10;99.40;;;;;;4955630;29;20046;-74
2021/11/20 03:34:12;;;;;;;11.98;5.03;;;13.10;99.50;;;;;;4938825;29;20023;-73
2021/11/20 03:36:38;;;;;;;12.02;5.30;;;13.00;99.50;;;;;;4955559;29;20473;-75
2021/11/20 03:39:07;;;;;;;12.32;5.70;;;12.90;99.60;;;;;;4955686;29;20209;-75
2021/11/20 03:41:33;;;;;;;16.35;5.38;;;12.90;99.60;;;;;;4956026;29;20377;-75
2021/11/20 03:43:59;;;;;;;11.48;5.03;;;12.90;99.70;;;;;;4955448;29;20420;-74
2021/11/20 03:46:26;;;;;;;10.98;5.82;;;13.00;99.60;;;;;;4938470;29;20050;-74
2021/11/20 03:48:52;;;;;;;14.65;6.22;;;12.90;99.60;;;;;;4955264;29;20098;-74
2021/11/20 03:51:18;;;;;;;12.40;5.18;;;13.00;99.50;;;;;;4955509;29;20031;-74
2021/11/20 03:53:43;;;;;;;10.70;4.60;;;12.90;99.50;;;;;;4938121;29;20035;-75
2021/11/20 03:56:09;;;;;;;12.30;5.88;;;12.90;99.60;;;;;;4956097;29;20540;-74
2021/11/20 03:58:37;;;;;;;11.35;5.20;;;12.90;99.50;;;;;;4954954;29;20046;-74
2021/11/20 04:01:08;;;;;;;15.65;6.47;;;12.90;99.50;;;;;;4955266;29;20028;-74
2021/11/20 04:03:36;;;;;;;6.93;4.97;;;12.80;99.50;;;;;;4948087;29;20473;-74
2021/11/20 04:06:02;;;;;;;10.18;4.88;;;12.90;99.50;;;;;;4935807;29;20028;-74
2021/11/20 04:08:28;;;;;;;13.10;5.45;;;13.00;99.50;;;;;;4936273;29;20107;-74
2021/11/20 04:10:56;;;;;;;13.23;5.45;;;12.90;99.50;;;;;;4935765;29;20043;-74
2021/11/20 04:13:22;;;;;;;15.35;5.63;;;12.90;99.50;;;;;;4935849;29;20114;-72
2021/11/20 04:15:50;;;;;;;11.45;5.00;;;12.90;99.60;;;;;;4935611;29;20032;-73
2021/11/20 04:18:16;;;;;;;10.07;5.57;;;12.90;99.50;;;;;;4935642;29;20036;-73
2021/11/20 04:20:42;;;;;;;9.40;5.35;;;12.90;99.80;;;;;;4936084;29;20446;-74
2021/11/20 04:23:10;;;;;;;10.82;5.07;;;12.90;99.60;;;;;;4935919;29;20028;-74
2021/11/20 04:25:36;;;;;;;14.50;5.70;;;13.00;99.40;;;;;;4918639;29;20406;-74
2021/11/20 04:28:03;;;;;;;10.57;5.50;;;13.00;99.40;;;;;;4935595;29;20046;-74
2021/11/20 04:30:29;;;;;;;9.60;5.30;;;13.00;99.30;;;;;;4935822;29;20035;-75
2021/11/20 04:32:55;;;;;;;12.65;5.70;;;13.10;99.40;;;;;;4935218;29;20027;-77
2021/11/20 04:35:23;;;;;;;12.93;5.53;;;13.00;99.30;;;;;;4936233;29;20016;-75
2021/11/20 04:37:49;;;;;;;8.80;5.32;;;12.90;99.40;;;;;;4935423;29;20126;-75
2021/11/20 04:40:17;;;;;;;9.98;5.18;;;12.90;99.40;;;;;;4935598;29;20131;-74
2021/11/20 04:42:43;;;;;;;13.95;6.88;;;13.00;99.40;;;;;;4917696;29;20111;-75
2021/11/20 04:45:13;;;;;;;11.27;5.78;;;13.00;99.30;;;;;;4935338;29;20043;-75
2021/11/20 04:47:39;;;;;;;18.23;6.47;;;12.90;99.40;;;;;;4935490;29;20051;-78
2021/11/20 04:50:07;;;;;;;12.68;5.90;;;13.00;99.40;;;;;;4935259;29;20123;-75
2021/11/20 04:52:33;;;;;;;9.30;6.07;;;13.10;99.30;;;;;;4935105;29;20461;-76
2021/11/20 04:54:59;;;;;;;11.32;5.57;;;13.10;99.30;;;;;;4935086;29;20050;-75
2021/11/20 04:57:24;;;;;;;11.13;6.03;;;13.10;99.20;;;;;;4935202;29;20344;-74
2021/11/20 04:59:50;;;;;;;12.93;6.03;;;13.10;99.20;;;;;;4935147;29;20449;-75
2021/11/20 05:02:16;;;;;;;12.48;6.35;;;13.10;99.30;;;;;;4935796;29;20023;-76
2021/11/20 05:04:41;;;;;;;13.52;7.30;;;13.00;99.20;;;;;;4950427;29;20043;-73
2021/11/20 05:07:08;;;;;;;16.02;7.80;;;13.00;99.20;;;;;;4953892;29;20045;-73
2021/11/20 05:09:34;;;;;;;18.42;8.45;;;13.00;99.30;;;;;;4953913;29;20035;-73
2021/11/20 05:12:00;;;;;;;14.75;7.78;;;13.00;99.30;;;;;;4936914;29;20533;-75
2021/11/20 05:14:26;;;;;;;15.32;8.38;;;13.10;99.30;;;;;;4954140;29;20028;-74
2021/11/20 05:16:51;;;;;;;18.33;10.20;;;13.10;99.20;;;;;;4953802;29;20117;-74
2021/11/20 05:19:17;;;;;;;20.38;11.15;;;13.00;99.30;;;;;;4936676;29;20035;-74
2021/11/20 05:21:43;;;;;;;20.02;10.70;;;13.00;99.40;;;;;;4953610;29;20039;-75
2021/11/20 05:24:09;;;;;;;20.73;11.30;;;13.10;99.40;;;;;;4936470;29;20095;-74
2021/11/20 05:26:34;;;;;;;22.52;12.45;;;13.10;99.40;;;;;;4954129;29;20035;-74
2021/11/20 05:29:09;;;;;;;25.17;11.93;;;13.10;99.30;;;;;;4936540;29;20065;-74
2021/11/20 05:31:37;;;;;;;24.10;14.18;;;13.10;99.30;;;;;;4953659;29;20027;-74
2021/11/20 05:34:04;;;;;;;23.90;13.35;;;13.10;99.40;;;;;;4953699;29;20031;-74
2021/11/20 05:36:35;;;;;;;25.23;14.80;;;13.10;99.50;;;;;;4953432;29;20157;-72
2021/11/20 05:39:03;;;;;;;23.42;14.13;;;12.90;99.60;;;;;;4953381;29;20027;-73
2021/11/20 05:41:30;;;;;;;24.23;15.77;;;13.00;99.70;;;;;;4936598;29;20043;-73
2021/11/20 05:43:56;;;;;;;29.57;14.67;;;13.00;99.70;;;;;;4953093;29;20046;-73
2021/11/20 05:46:24;;;;;;;32.83;16.42;;;12.90;99.80;;;;;;4953394;29;20300;-73
2021/11/20 05:48:50;;;;;;;32.60;17.45;;;13.00;99.80;;;;;;4953313;29;20293;-74
2021/11/20 05:51:16;;;;;;;30.80;17.80;;;13.00;99.70;;;;;;4953148;29;20490;-73
2021/11/20 05:53:44;;;;;;;31.08;16.42;;;13.00;99.80;;;;;;4953006;28;20027;-74
2021/11/20 05:56:10;;;;;;;33.00;18.60;;;13.00;99.80;;;;;;4953092;29;20484;-74
2021/11/20 05:58:36;;;;;;;33.58;18.08;;;12.80;99.90;;;;;;4953145;29;20054;-74
2021/11/20 06:01:10;;;;;;;36.95;19.30;;;12.90;99.90;;;;;;4953258;29;20035;-74
2021/11/20 06:03:36;;;;;;;34.95;20.33;;;12.90;99.80;;;;;;4952875;29;20039;-74
2021/11/20 06:06:03;;;;;;;35.83;21.30;;;12.90;99.90;;;;;;4952808;29;20016;-75
2021/11/20 06:08:29;;;;;;;35.15;20.50;;;12.90;99.90;;;;;;4953514;29;20034;-75
2021/11/20 06:10:57;;;;;;;34.70;20.45;;;12.90;99.90;;;;;;4952890;29;20035;-75
2021/11/20 06:13:25;;;;;;;38.75;20.88;;;13.00;99.80;;;;;;4953144;29;20031;-75
2021/11/20 06:15:50;;;;;;;40.13;21.07;;;13.00;99.80;;;;;;4952856;28;20036;-74
2021/11/20 06:18:17;;;;;;;33.95;20.35;;;13.00;99.80;;;;;;4952784;29;20034;-75
2021/11/20 06:20:44;;;;;;;35.67;19.45;;;13.00;99.80;;;;;;4936460;29;20477;-74
2021/11/20 06:23:10;;;;;;;41.78;21.45;;;12.90;99.90;;;;;;4952899;29;20473;-75
2021/11/20 06:25:36;;;;;;;36.10;21.13;;;12.90;99.90;;;;;;4952587;29;20489;-74
2021/11/20 06:28:02;;;;;;;37.78;21.13;;;13.00;99.90;;;;;;4935852;29;20118;-74
2021/11/20 06:30:29;;;;;;;35.63;21.50;;;13.00;99.90;;;;;;4952779;29;20055;-74
2021/11/20 06:32:55;;;;;;;42.10;22.65;;;12.80;99.80;;;;;;4935675;29;20599;-76
2021/11/20 06:35:23;;;;;;;36.53;21.30;;;12.80;99.90;;;;;;4952968;29;20043;-75
2021/11/20 06:37:49;;;;;;;43.72;22.88;;;12.80;99.90;;;;;;4952688;29;20024;-74
2021/11/20 06:40:23;;;;;;;38.70;22.08;;;12.80;99.90;;;;;;4952433;29;20110;-74
2021/11/20 06:42:48;;;;;;;38.65;22.92;;;12.80;99.90;;;;;;4952663;29;20041;-76
2021/11/20 06:45:20;;;;;;;36.13;22.25;;;12.80;99.90;;;;;;4952442;29;20043;-75
2021/11/20 06:47:46;;;;;;;35.88;22.80;;;12.80;99.90;;;;;;4952397;29;20047;-75
2021/11/20 06:50:12;;;;;;;38.75;21.63;;;12.70;99.90;;;;;;4953180;29;20023;-75
2021/11/20 06:52:38;;;;;;;33.08;21.75;;;12.80;99.90;;;;;;4952758;29;20031;-74
2021/11/20 06:55:05;;;;;;;37.17;22.25;;;12.90;99.90;;;;;;4952485;29;20047;-76
2021/11/20 07:00:28;;;;;;;37.08;22.02;;;12.80;99.90;;;;;;4948155;29;20442;-74
2021/11/20 07:03:13;;;;;;;36.85;22.05;;;12.80;99.90;;;;;;4933258;29;20111;-74
2021/11/20 07:05:45;;;;;;;38.13;21.60;;;12.70;99.90;;;;;;4918860;29;20103;-74
2021/11/20 07:08:13;;;;;;;35.15;22.08;;;12.80;99.90;;;;;;4920566;29;20048;-73
2021/11/20 07:10:39;;;;;;;35.50;21.45;;;12.80;99.90;;;;;;4937171;29;20117;-73
2021/11/20 07:13:06;;;;;;;35.22;21.15;;;12.80;99.90;;;;;;4937095;29;20107;-73
2021/11/20 07:15:32;;;;;;;34.85;21.77;;;12.80;99.90;;;;;;4936710;29;20031;-73
2021/11/20 07:17:59;;;;;;;31.48;20.58;;;12.80;99.90;;;;;;4937014;29;20038;-75
2021/11/20 07:20:28;;;;;;;32.72;20.88;;;12.80;99.90;;;;;;4937812;29;20028;-74
2021/11/20 07:22:55;;;;;;;39.97;21.85;;;12.80;99.80;;;;;;4937155;29;20119;-74
2021/11/20 07:25:25;;;;;;;36.80;21.97;;;12.80;99.90;;;;;;4936828;29;20043;-74
2021/11/20 07:27:52;;;;;;;36.92;21.05;;;12.80;99.80;;;;;;4937047;29;20039;-74
2021/11/20 07:30:20;;;;;;;30.05;20.60;;;12.80;99.70;;;;;;4919809;29;20390;-73
2021/11/20 07:32:47;;;;;;;35.35;21.42;;;12.90;99.70;;;;;;4936752;29;20059;-72
2021/11/20 07:35:21;;;;;;;33.85;21.00;;;12.80;99.60;;;;;;4936909;29;20016;-73
2021/11/20 07:37:47;;;;;;;34.75;20.23;;;12.90;99.80;;;;;;4936837;29;20051;-72
2021/11/20 07:40:12;;;;;;;33.28;21.20;;;12.90;99.80;;;;;;4936548;29;20529;-72
2021/11/20 07:42:38;;;;;;;29.83;20.15;;;12.90;99.70;;;;;;4936599;29;20354;-72
2021/11/20 07:45:04;;;;;;;32.03;21.05;;;12.90;99.80;;;;;;4936313;29;20053;-71
2021/11/20 07:47:31;;;;;;;32.40;20.25;;;12.90;99.70;;;;;;4936743;29;20119;-74
2021/11/20 07:49:57;;;;;;;35.03;20.73;;;13.00;99.70;;;;;;4936410;29;20028;-73
2021/11/20 07:52:22;;;;;;;29.42;20.30;;;13.00;99.70;;;;;;4936667;29;20091;-74
2021/11/20 07:54:48;;;;;;;27.38;18.67;;;13.00;99.60;;;;;;4936680;29;20103;-75
2021/11/20 07:57:14;;;;;;;30.70;19.50;;;13.10;99.70;;;;;;4936553;29;20059;-73
2021/11/20 07:59:40;;;;;;;30.00;18.95;;;13.10;99.60;;;;;;4919739;29;20758;-76
2021/11/20 08:02:09;;;;;;;27.88;17.73;;;13.00;99.50;;;;;;4936059;29;20035;-73
2021/11/20 08:04:37;;;;;;;29.92;18.38;;;13.00;99.50;;;;;;4936089;29;20056;-74
2021/11/20 08:07:05;;;;;;;33.13;18.25;;;13.00;99.40;;;;;;4936414;29;20062;-75
2021/11/20 08:09:33;;;;;;;29.77;17.90;;;13.10;99.50;;;;;;4936375;29;20070;-74
2021/11/20 08:12:00;;;;;;;32.03;17.85;;;13.10;99.20;;;;;;4919401;29;20024;-74
2021/11/20 08:14:26;;;;;;;27.63;16.67;;;13.00;99.30;;;;;;4936503;29;20111;-75
2021/11/20 08:16:52;;;;;;;23.30;15.70;;;13.00;99.20;;;;;;4918659;29;20119;-74
2021/11/20 08:19:18;;;;;;;30.05;16.75;;;13.00;99.20;;;;;;4918482;29;20473;-74
2021/11/20 08:21:43;;;;;;;27.55;16.98;;;13.10;99.30;;;;;;4936083;29;20532;-75
2021/11/20 08:24:10;;;;;;;24.10;16.02;;;13.10;99.00;;;;;;4935829;29;20047;-74
2021/11/20 08:26:37;;;;;;;25.58;14.82;;;13.00;98.90;;;;;;4936815;29;20042;-73
2021/11/20 08:29:12;;;;;;;22.80;15.77;;;13.00;99.00;;;;;;4935705;29;20111;-73
2021/11/20 08:31:41;;;;;;;20.90;14.48;;;13.10;99.00;;;;;;4935761;29;20036;-74
2021/11/20 08:34:08;;;;;;;24.00;13.93;;;13.00;99.00;;;;;;4935541;29;20035;-74
2021/11/20 08:36:34;;;;;;;25.73;14.32;;;13.10;99.00;;;;;;4935443;29;20032;-71
2021/11/20 08:39:01;;;;;;;22.55;14.90;;;13.20;99.00;;;;;;4935796;29;20046;-76
2021/11/20 08:41:27;;;;;;;27.25;15.02;;;13.10;98.70;;;;;;4936085;29;20034;-72
2021/11/20 08:43:53;;;;;;;25.98;15.18;;;13.10;98.70;;;;;;4935464;29;20043;-72
2021/11/20 08:46:19;;;;;;;23.25;14.52;;;12.90;98.80;;;;;;4935212;29;20418;-76
2021/11/20 08:48:45;;;;;;;20.88;13.80;;;12.90;98.90;;;;;;4935203;29;20039;-75
2021/11/20 08:51:15;;;;;;;19.63;13.48;;;12.90;98.90;;;;;;4935284;29;20366;-75
2021/11/20 08:53:42;;;;;;;22.80;13.60;;;13.00;98.80;;;;;;4935574;29;20087;-72
2021/11/20 08:56:09;;;;;;;22.83;14.65;;;13.10;98.70;;;;;;4935141;29;20063;-74
2021/11/20 08:58:35;;;;;;;20.95;13.88;;;13.00;98.50;;;;;;4934884;29;20055;-72
2021/11/20 09:01:39;;;;;;;20.40;13.02;;;13.10;98.50;;;;;;4918166;29;20036;-71
2021/11/20 09:04:10;;;;;;;23.55;14.60;;;13.10;98.50;;;;;;4838749;29;20137;-72
2021/11/20 09:06:39;;;;;;;23.42;14.00;;;13.10;98.40;;;;;;4904132;29;20115;-72
2021/11/20 09:09:23;;;;;;;24.05;14.07;;;12.90;98.60;;;;;;4898836;29;20032;-72
2021/11/20 09:11:57;;;;;;;22.60;14.25;;;13.10;98.50;;;;;;4915913;29;20024;-71
2021/11/20 09:14:28;;;;;;;24.00;13.40;;;13.10;98.50;;;;;;4916096;29;20052;-73
2021/11/20 09:16:59;;;;;;;19.75;13.43;;;13.20;98.40;;;;;;4915738;29;20036;-71
2021/11/20 09:19:30;;;;;;;23.88;14.52;;;13.30;98.30;;;;;;4915346;29;20048;-72
2021/11/20 09:21:58;;;;;;;20.02;12.63;;;13.20;98.20;;;;;;4915639;29;20040;-72
2021/11/20 09:24:26;;;;;;;19.95;13.18;;;13.30;98.30;;;;;;4915405;29;20036;-71
2021/11/20 09:26:51;;;;;;;25.20;14.25;;;13.30;98.30;;;;;;4915100;29;20110;-70
2021/11/20 09:29:19;;;;;;;18.95;12.35;;;13.30;98.20;;;;;;4915540;29;20120;-71
2021/11/20 09:31:47;;;;;;;20.92;14.10;;;13.40;98.00;;;;;;4915382;29;20047;-71
2021/11/20 09:34:16;;;;;;;20.42;13.13;;;13.30;97.90;;;;;;4898639;29;20119;-71
2021/11/20 09:36:43;;;;;;;18.30;12.70;;;13.30;97.90;;;;;;4915162;29;20072;-73
2021/11/20 09:39:12;;;;;;;22.07;13.10;;;13.40;98.00;;;;;;4915048;29;20104;-72
2021/11/20 09:41:54;;;;;;;22.45;12.20;;;13.30;97.90;;;;;;4915347;29;20025;-71
2021/11/20 09:44:21;;;;;;;18.48;12.73;;;13.40;97.90;;;;;;4898482;29;20104;-71
2021/11/20 09:46:49;;;;;;;21.98;12.10;;;13.50;97.80;;;;;;4914932;29;20123;-73
2021/11/20 09:49:26;;;;;;;17.45;11.77;;;13.50;97.50;;;;;;4915118;29;20784;-72
2021/11/20 09:51:53;;;;;;;19.67;12.32;;;13.30;97.50;;;;;;4914873;29;20032;-72
2021/11/20 09:54:21;;;;;;;19.23;11.32;;;13.20;97.30;;;;;;4897916;29;20032;-72
2021/11/20 09:57:05;;;;;;;20.23;12.13;;;13.30;97.60;;;;;;4914836;29;20051;-70
2021/11/20 09:59:49;;;;;;;16.70;11.35;;;13.30;97.20;;;;;;4915226;29;20047;-71
2021/11/20 10:02:23;;;;;;;16.42;10.73;;;13.40;97.30;;;;;;4898444;29;20056;-70
2021/11/20 10:05:02;;;;;;;18.42;11.63;;;13.50;97.10;;;;;;4914203;29;20422;-71
2021/11/20 10:07:45;;;;;;;19.13;11.00;;;13.40;96.90;;;;;;4933874;29;20036;-71
2021/11/20 10:10:51;;;;;;;16.67;10.73;;;13.30;97.20;;;;;;4933827;29;20032;-72
2021/11/20 10:13:27;;;;;;;17.88;11.45;;;13.40;97.00;;;;;;4856362;29;20037;-71
2021/11/20 10:16:15;;;;;;;19.65;11.23;;;13.60;97.00;;;;;;4926040;29;20028;-74
2021/11/20 10:18:51;;;;;;;;;;;13.60;96.70;;;;;;4934107;29;20054;-72
2021/11/20 10:21:31;;;;;;;26.63;15.27;;;13.60;96.80;;;;;;4933948;29;19974;-73
2021/11/20 10:24:17;;;;;;;20.80;11.05;;;13.70;96.90;;;;;;4933193;29;20050;-72
2021/11/20 10:27:01;;;;;;;17.38;10.25;;;13.80;97.10;;;;;;4934537;29;20051;-74
2021/11/20 10:30:07;;;;;;;16.75;10.48;;;13.80;96.60;;;;;;4933585;29;20111;-73
2021/11/20 10:32:40;;;;;;;16.90;10.15;;;13.80;96.50;;;;;;4934209;29;20066;-72
2021/11/20 10:35:23;;;;;;;15.38;10.05;;;13.70;96.30;;;;;;4933267;29;20413;-72
2021/11/20 10:38:14;;;;;;;15.82;10.80;;;13.60;96.00;;;;;;4916619;29;20082;-73
2021/11/20 10:40:56;;;;;;;15.75;9.55;;;13.70;96.10;;;;;;4922822;29;20036;-77
2021/11/20 10:43:38;;;;;;;14.50;10.07;;;13.70;96.20;;;;;;4933308;29;20378;-72
2021/11/20 10:46:26;;;;;;;17.25;9.93;;;13.60;95.80;;;;;;4932984;29;20047;-75
2021/11/20 10:49:03;;;;;;;14.75;9.75;;;13.60;95.80;;;;;;4933453;29;20043;-72
2021/11/20 10:51:43;;;;;;;23.38;10.52;;;13.70;95.60;;;;;;4933327;29;20043;-72
2021/11/20 10:54:43;;;;;;;17.58;9.88;;;13.60;95.60;;;;;;4933216;29;20055;-72
2021/11/20 10:57:33;;;;;;;16.27;9.60;;;13.50;95.40;;;;;;4933238;29;20032;-73
2021/11/20 11:00:04;;;;;;;15.98;10.13;;;13.60;95.50;;;;;;4933371;29;20067;-74
2021/11/20 11:02:33;;;;;;;20.27;10.52;;;13.50;95.50;;;;;;4916527;29;20039;-74
2021/11/20 11:05:16;;;;;;;17.08;10.13;;;13.60;95.40;;;;;;4915130;29;20045;-76
2021/11/20 11:07:45;;;;;;;16.65;10.35;;;13.70;95.50;;;;;;4914119;29;20047;-77
2021/11/20 11:10:20;;;;;;;18.17;10.13;;;13.70;95.50;;;;;;4898104;29;20047;-75
2021/11/20 11:13:00;;;;;;;17.90;9.98;;;13.70;95.40;;;;;;4913689;29;20036;-71
2021/11/20 11:16:10;;;;;;;15.88;10.35;;;13.60;95.20;;;;;;4914101;29;20466;-72
2021/11/20 11:18:44;;;;;;;17.65;10.48;;;13.50;95.20;;;;;;4914169;29;20042;-73
2021/11/20 11:21:34;;;;;;;14.93;9.82;;;13.50;95.30;;;;;;4914138;29;20711;-73
2021/11/20 11:24:18;;;;;;;14.25;9.63;;;13.50;95.10;;;;;;4913805;29;20042;-70
2021/11/20 11:26:56;;;;;;;20.75;10.02;;;13.60;95.20;;;;;;4913967;29;20036;-69
2021/11/20 11:29:45;;;;;;;15.40;9.93;;;13.60;94.90;;;;;;4914466;29;20104;-71
2021/11/20 11:32:12;;;;;;;16.38;9.30;;;13.50;95.00;;;;;;4900419;29;20055;-71
2021/11/20 11:34:51;;;;;;;14.27;9.30;;;13.50;95.10;;;;;;4913884;29;20044;-69
2021/11/20 11:37:33;;;;;;;16.00;9.82;;;13.50;95.00;;;;;;4913596;29;20410;-72
2021/11/20 11:40:17;;;;;;;12.63;9.15;;;13.40;94.90;;;;;;4913628;29;20055;-72
2021/11/20 11:42:52;;;;;;;17.77;10.05;;;13.40;94.90;;;;;;4913521;29;20064;-71
2021/11/20 11:45:47;;;;;;;18.80;8.93;;;13.40;94.70;;;;;;4913677;29;20036;-70
2021/11/20 11:48:15;;;;;;;14.07;9.05;;;13.40;94.60;;;;;;4906102;29;20489;-69
2021/11/20 11:50:54;;;;;;;14.95;8.82;;;13.40;94.80;;;;;;4897219;29;20152;-70
2021/11/20 11:53:35;;;;;;;15.05;9.20;;;13.40;94.80;;;;;;4899549;29;20147;-71
2021/11/20 11:56:07;;;;;;;13.75;8.57;;;13.60;94.70;;;;;;4916524;29;20059;-69
2021/11/20 11:58:36;;;;;;;16.42;9.75;;;13.30;94.40;;;;;;4916549;29;20442;-69
2021/11/20 12:01:10;;;;;;;15.63;9.07;;;13.40;94.50;;;;;;4916834;29;20036;-69
2021/11/20 12:03:45;;;;;;;14.73;9.27;;;13.40;94.40;;;;;;4923403;29;20047;-70
2021/11/20 12:06:39;;;;;;;18.88;10.85;;;13.40;94.40;;;;;;4927420;29;20074;-70
2021/11/20 12:09:30;;;;;;;15.77;9.15;;;13.40;94.50;;;;;;4916737;29;20068;-70
2021/11/20 12:12:08;;;;;;;21.83;10.75;;;13.40;94.30;;;;;;4916430;29;20024;-71
2021/11/20 12:14:38;;;;;;;14.50;9.30;;;13.40;94.20;;;;;;4917094;29;20459;-71
2021/11/20 12:17:18;;;;;;;21.00;10.57;;;13.40;94.00;;;;;;4915206;29;20040;-69
2021/11/20 12:19:52;;;;;;;16.63;9.57;;;13.30;93.90;;;;;;4916416;29;20040;-69
2021/11/20 12:22:54;;;;;;;18.42;9.27;;;13.30;93.80;;;;;;4916399;29;20039;-72
2021/11/20 12:25:23;;;;;;;16.08;9.70;;;13.30;93.90;;;;;;4916290;29;20040;-71
2021/11/20 12:27:49;;;;;;;18.77;11.27;;;13.20;93.70;;;;;;4916158;29;20569;-73
2021/11/20 12:30:33;;;;;;;18.90;10.90;;;13.30;93.70;;;;;;4916042;29;20153;-72
2021/11/20 12:33:08;;;;;;;22.45;12.68;;;13.30;93.80;;;;;;4916118;29;20420;-72
2021/11/20 12:35:51;;;;;;;24.83;11.65;;;13.40;93.80;;;;;;4916744;29;20036;-73
2021/11/20 12:38:20;;;;;;;20.05;11.48;;;13.40;93.90;;;;;;4916380;29;20076;-72
2021/11/20 12:41:10;;;;;;;22.15;12.90;;;13.30;93.50;;;;;;4916305;29;20363;-75
2021/11/20 12:43:54;;;;;;;22.35;12.25;;;13.30;93.50;;;;;;4916229;29;20047;-75
2021/11/20 12:46:33;;;;;;;24.65;13.23;;;13.40;93.50;;;;;;4915925;29;20035;-72
2021/11/20 12:49:26;;;;;;;28.38;15.13;;;13.30;93.20;;;;;;4915972;29;20353;-71
2021/11/20 12:52:16;;;;;;;31.83;14.13;;;13.20;93.40;;;;;;4899072;29;20039;-73
2021/11/20 12:54:47;;;;;;;23.17;13.32;;;13.20;93.20;;;;;;4915484;29;20432;-73
2021/11/20 12:57:19;;;;;;;25.25;14.10;;;13.20;93.20;;;;;;4915994;29;20032;-74